Time;durP1;ratioP1;P1;durP2;ratioP2;P2;SDS_P1;SDS_P2;PMS_P1;PMS_P2;Temp;Humidity;BMP_temperature;BMP_pressure;BME280_temperature;BME280_humidity;BME280_pressure;Samples;Min_cycle;Max_cycle;Signal;HPM_P1;HPM_P2
2024/03/27 00:03:04;;;;;;;3.20;1.40;;;;;11.80;97920.00;;;;10354533;28;20276;-87
2024/03/27 00:08:05;;;;;;;4.17;1.37;;;;;11.80;97923.00;;;;10340128;28;20223;-88
2024/03/27 00:13:06;;;;;;;3.37;1.40;;;;;11.70;97932.00;;;;10361751;28;20229;-88
2024/03/27 00:18:07;;;;;;;1.73;1.33;;;;;11.70;97935.00;;;;10339267;28;20326;-86
2024/03/27 00:23:08;;;;;;;1.10;1.00;;;;;11.70;97927.00;;;;10331293;28;20720;-88
2024/03/27 00:28:09;;;;;;;3.03;1.00;;;;;11.60;97925.00;;;;10363864;28;20226;-86
2024/03/27 00:33:14;;;;;;;2.87;1.10;;;;;11.60;97915.00;;;;10373896;28;20250;-86
2024/03/27 00:38:15;;;;;;;1.87;0.70;;;;;11.40;97918.00;;;;10361285;28;20939;-88
2024/03/27 00:43:17;;;;;;;4.47;1.40;;;;;11.30;97909.00;;;;10348120;28;20221;-86
2024/03/27 00:48:18;;;;;;;2.30;1.00;;;;;11.30;97902.00;;;;10353678;28;20218;-86
2024/03/27 00:53:19;;;;;;;1.23;1.00;;;;;11.20;97904.00;;;;10332986;28;20230;-87
2024/03/27 00:58:20;;;;;;;3.23;1.03;;;;;11.20;97900.00;;;;10327096;28;21156;-88
2024/03/27 01:03:26;;;;;;;4.70;1.30;;;;;11.10;97904.00;;;;10360345;28;20224;-87
2024/03/27 01:08:27;;;;;;;2.27;1.00;;;;;11.10;97915.00;;;;10359237;28;20214;-87
2024/03/27 01:13:28;;;;;;;2.00;1.33;;;;;11.20;97903.00;;;;10337255;28;20316;-86
2024/03/27 01:18:29;;;;;;;3.10;1.93;;;;;11.20;97903.00;;;;10315647;28;20900;-86
2024/03/27 01:23:30;;;;;;;2.60;2.40;;;;;11.10;97886.00;;;;10309964;28;20722;-86
2024/03/27 01:28:32;;;;;;;2.27;1.70;;;;;10.90;97913.00;;;;10318821;28;20755;-87
2024/03/27 01:33:36;;;;;;;2.90;2.60;;;;;10.80;97904.00;;;;10338952;28;20254;-85
2024/03/27 01:38:37;;;;;;;3.03;2.60;;;;;10.70;97906.00;;;;10324622;28;20991;-86
2024/03/27 01:43:38;;;;;;;3.60;2.30;;;;;10.70;97912.00;;;;10332885;28;20274;-82
2024/03/27 01:48:40;;;;;;;4.93;3.27;;;;;10.60;97911.00;;;;10309746;28;20231;-82
2024/03/27 01:53:42;;;;;;;3.00;2.63;;;;;10.70;97899.00;;;;10323362;28;20225;-80
2024/03/27 01:58:43;;;;;;;3.67;3.37;;;;;10.60;97908.00;;;;10328296;28;20255;-80
2024/03/27 02:03:44;;;;;;;3.70;3.40;;;;;10.60;97904.00;;;;10336536;28;20247;-81
2024/03/27 02:08:45;;;;;;;3.00;2.57;;;;;10.50;97895.00;;;;10352357;28;20270;-79
2024/03/27 02:13:47;;;;;;;3.40;2.53;;;;;10.50;97896.00;;;;10368696;28;20910;-81
2024/03/27 02:18:48;;;;;;;2.80;2.50;;;;;10.40;97893.00;;;;10355030;28;20301;-79
2024/03/27 02:24:03;;;;;;;3.77;2.60;;;;;10.20;97928.00;;;;10343052;28;20234;-81
2024/03/27 02:29:04;;;;;;;2.33;2.13;;;;;9.90;97934.00;;;;10348049;28;20231;-81
2024/03/27 02:34:05;;;;;;;4.10;3.10;;;;;9.60;97935.00;;;;10368373;28;20261;-82
2024/03/27 02:39:07;;;;;;;3.73;3.30;;;;;9.40;97952.00;;;;10350725;28;20257;-81
2024/03/27 02:44:08;;;;;;;4.67;3.40;;;;;9.30;97970.00;;;;10380506;28;20313;-81
2024/03/27 02:49:10;;;;;;;4.03;3.13;;;;;9.10;97959.00;;;;10371569;28;20355;-81
2024/03/27 02:54:11;;;;;;;5.47;3.90;;;;;9.00;97977.00;;;;10359185;28;20428;-81
2024/03/27 02:59:12;;;;;;;5.97;4.43;;;;;9.00;97989.00;;;;10360509;28;20306;-79
2024/03/27 03:04:13;;;;;;;9.20;5.53;;;;;8.90;97990.00;;;;10379227;28;20959;-77
2024/03/27 03:09:14;;;;;;;9.20;5.90;;;;;8.90;97996.00;;;;10369700;28;20231;-80
2024/03/27 03:14:15;;;;;;;9.67;6.13;;;;;8.90;97998.00;;;;10372284;28;20349;-81
2024/03/27 03:19:16;;;;;;;7.30;5.30;;;;;8.80;97998.00;;;;10338496;28;21019;-79
2024/03/27 03:24:17;;;;;;;7.53;5.17;;;;;8.80;97999.00;;;;10361938;28;20215;-79
2024/03/27 03:29:19;;;;;;;7.00;5.30;;;;;8.70;97971.00;;;;10366366;28;20305;-79
2024/03/27 03:34:20;;;;;;;8.40;5.37;;;;;8.70;97955.00;;;;10346496;28;20249;-80
2024/03/27 03:39:21;;;;;;;9.77;4.97;;;;;8.60;97957.00;;;;10368963;28;20242;-80
2024/03/27 03:44:22;;;;;;;8.80;5.77;;;;;8.60;97958.00;;;;10352031;28;20215;-80
2024/03/27 03:49:23;;;;;;;7.80;5.83;;;;;8.50;97958.00;;;;10354513;28;20623;-78
2024/03/27 03:54:24;;;;;;;10.07;6.30;;;;;8.50;97972.00;;;;10353195;28;20219;-80
2024/03/27 03:59:26;;;;;;;8.73;6.83;;;;;8.50;97985.00;;;;10347129;28;20218;-83
2024/03/27 04:04:27;;;;;;;9.57;6.37;;;;;8.40;97991.00;;;;10340555;28;20251;-83
2024/03/27 04:09:30;;;;;;;10.97;6.30;;;;;8.40;97997.00;;;;10347323;28;21187;-83
2024/03/27 04:14:32;;;;;;;9.30;4.10;;;;;8.40;97982.00;;;;10335760;28;20253;-84
2024/03/27 04:19:33;;;;;;;6.03;3.20;;;;;8.30;97986.00;;;;10335884;28;20254;-83
2024/03/27 04:24:34;;;;;;;6.63;4.00;;;;;8.30;97979.00;;;;10345301;28;20644;-83
2024/03/27 04:29:35;;;;;;;3.63;2.77;;;;;8.30;97971.00;;;;10369358;28;20226;-83
2024/03/27 04:34:37;;;;;;;3.77;2.97;;;;;8.20;97977.00;;;;10349219;28;20297;-83
2024/03/27 04:39:42;;;;;;;5.27;3.80;;;;;8.20;97982.00;;;;10357892;28;20241;-82
2024/03/27 04:44:43;;;;;;;4.10;2.97;;;;;8.20;97990.00;;;;10340754;28;20317;-83
2024/03/27 04:49:45;;;;;;;4.27;2.70;;;;;8.20;98015.00;;;;10333860;28;20314;-83
2024/03/27 04:54:46;;;;;;;5.77;3.40;;;;;8.20;98018.00;;;;10353671;28;20258;-83
2024/03/27 04:59:48;;;;;;;5.73;2.97;;;;;8.20;98028.00;;;;10363182;28;20254;-83
2024/03/27 05:04:49;;;;;;;5.20;3.30;;;;;8.20;98049.00;;;;10350310;28;20219;-83
2024/03/27 05:09:50;;;;;;;5.03;3.20;;;;;8.20;98034.00;;;;10339064;28;20250;-87
2024/03/27 05:14:52;;;;;;;5.43;3.17;;;;;8.20;98034.00;;;;10368421;28;20243;-87
2024/03/27 05:19:54;;;;;;;7.53;2.93;;;;;8.20;98035.00;;;;10342421;28;20249;-86
2024/03/27 05:24:56;;;;;;;3.97;2.00;;;;;8.20;98026.00;;;;10364327;28;20223;-85
2024/03/27 05:29:57;;;;;;;3.90;1.60;;;;;8.20;98036.00;;;;10372390;28;20290;-88
2024/03/27 05:34:59;;;;;;;3.00;1.20;;;;;8.20;98029.00;;;;10378142;28;20604;-87
2024/03/27 05:40:02;;;;;;;3.67;1.93;;;;;8.20;98033.00;;;;10384294;28;20218;-82
2024/03/27 05:45:03;;;;;;;1.63;1.47;;;;;8.20;98029.00;;;;10373350;28;20245;-86
2024/03/27 05:50:05;;;;;;;3.17;1.30;;;;;8.30;98024.00;;;;10370948;28;20215;-85
2024/03/27 05:55:08;;;;;;;1.83;1.50;;;;;8.30;98018.00;;;;10364107;28;20250;-87
2024/03/27 06:00:12;;;;;;;5.97;2.03;;;;;8.30;98018.00;;;;10380077;28;20225;-88
2024/03/27 06:05:13;;;;;;;5.47;2.30;;;;;8.30;98035.00;;;;10400931;28;20242;-85
2024/03/27 06:10:14;;;;;;;2.87;2.20;;;;;8.30;98043.00;;;;10375224;28;20227;-84
2024/03/27 06:15:15;;;;;;;4.07;2.07;;;;;8.40;98071.00;;;;10380658;28;20268;-82
2024/03/27 06:20:17;;;;;;;2.97;2.10;;;;;8.40;98058.00;;;;10393677;28;20697;-77
2024/03/27 06:25:18;;;;;;;3.37;1.90;;;;;8.50;98080.00;;;;10400139;28;20285;-78
2024/03/27 06:30:19;;;;;;;2.57;1.90;;;;;8.50;98070.00;;;;10390478;28;20223;-78
2024/03/27 06:35:22;;;;;;;2.67;2.07;;;;;8.50;98072.00;;;;10381738;28;20743;-78
2024/03/27 06:40:25;;;;;;;3.10;2.13;;;;;8.50;98068.00;;;;10376504;28;20224;-77
2024/03/27 06:45:26;;;;;;;2.57;1.83;;;;;8.50;98078.00;;;;10353392;28;20222;-78
2024/03/27 06:50:27;;;;;;;3.43;1.70;;;;;8.50;98075.00;;;;10395394;28;20312;-77
2024/03/27 06:55:28;;;;;;;2.53;1.87;;;;;8.50;98083.00;;;;10346542;28;20229;-78
2024/03/27 07:00:30;;;;;;;3.00;1.73;;;;;8.50;98098.00;;;;10369714;28;20222;-80
2024/03/27 07:05:31;;;;;;;3.17;1.83;;;;;8.50;98094.00;;;;10373665;28;20266;-79
2024/03/27 07:10:32;;;;;;;4.00;2.50;;;;;8.50;98102.00;;;;10355318;28;20253;-79
2024/03/27 07:15:34;;;;;;;4.90;2.83;;;;;8.60;98114.00;;;;10360055;28;20219;-79
2024/03/27 07:20:35;;;;;;;4.43;2.80;;;;;8.60;98105.00;;;;10376489;28;20226;-78
2024/03/27 07:25:40;;;;;;;6.60;3.33;;;;;8.80;98103.00;;;;10352669;28;20226;-78
2024/03/27 07:30:41;;;;;;;4.40;3.07;;;;;9.00;98103.00;;;;10359187;28;20702;-80
2024/03/27 07:35:54;;;;;;;5.07;3.20;;;;;9.10;98106.00;;;;10351648;28;20218;-82
2024/03/27 07:40:55;;;;;;;4.30;3.37;;;;;9.20;98099.00;;;;10341328;28;20377;-80
2024/03/27 07:45:56;;;;;;;5.77;3.20;;;;;9.20;98108.00;;;;10352884;28;20225;-81
2024/03/27 07:50:57;;;;;;;3.80;3.00;;;;;9.30;98093.00;;;;10382247;28;20227;-82
2024/03/27 07:56:03;;;;;;;3.03;2.60;;;;;9.50;98099.00;;;;10376806;28;20258;-81
2024/03/27 08:01:04;;;;;;;3.43;3.13;;;;;9.60;98099.00;;;;10379434;28;20301;-81
2024/03/27 08:06:05;;;;;;;4.10;3.00;;;;;9.80;98100.00;;;;10367154;28;20332;-82
2024/03/27 08:11:07;;;;;;;3.73;3.40;;;;;9.90;98098.00;;;;10344126;28;20284;-81
2024/03/27 08:16:09;;;;;;;3.90;3.50;;;;;10.10;98114.00;;;;10329022;28;20777;-81
2024/03/27 08:21:10;;;;;;;3.73;3.43;;;;;10.20;98109.00;;;;10396629;28;20230;-81
2024/03/27 08:26:11;;;;;;;6.03;4.03;;;;;10.40;98130.00;;;;10363706;28;20287;-83
2024/03/27 08:31:12;;;;;;;5.13;4.27;;;;;10.40;98133.00;;;;10323804;28;20259;-81
2024/03/27 08:36:13;;;;;;;6.47;3.97;;;;;10.30;98152.00;;;;10333335;28;20219;-82
2024/03/27 08:41:17;;;;;;;8.50;4.17;;;;;10.00;98149.00;;;;10332940;28;20230;-78
2024/03/27 08:46:19;;;;;;;4.77;3.37;;;;;10.00;98144.00;;;;10330004;28;20704;-78
2024/03/27 08:51:22;;;;;;;4.40;3.43;;;;;10.30;98141.00;;;;10329738;28;20223;-80
2024/03/27 08:56:23;;;;;;;3.67;3.20;;;;;10.60;98146.00;;;;10361024;28;20226;-78
2024/03/27 09:01:25;;;;;;;3.50;3.20;;;;;10.70;98153.00;;;;10385429;28;20227;-78
2024/03/27 09:06:26;;;;;;;4.20;3.80;;;;;11.30;98135.00;;;;10355974;28;20229;-79
2024/03/27 09:11:28;;;;;;;5.97;4.27;;;;;11.90;98147.00;;;;10325189;28;20306;-80
2024/03/27 09:16:29;;;;;;;4.73;4.33;;;;;12.30;98139.00;;;;10316788;28;20266;-79
2024/03/27 09:21:30;;;;;;;4.33;3.67;;;;;12.40;98139.00;;;;10322474;28;20227;-79
2024/03/27 09:26:31;;;;;;;5.97;4.03;;;;;12.50;98132.00;;;;10316299;28;20642;-79
2024/03/27 09:31:32;;;;;;;5.13;4.00;;;;;12.60;98123.00;;;;10311030;28;20386;-78
2024/03/27 09:36:33;;;;;;;4.73;4.00;;;;;12.80;98136.00;;;;10334757;28;20245;-81
2024/03/27 09:41:35;;;;;;;5.73;3.70;;;;;12.90;98152.00;;;;10311052;28;20270;-78
2024/03/27 09:46:38;;;;;;;5.77;4.40;;;;;12.80;98154.00;;;;10303784;28;20231;-79
2024/03/27 09:51:40;;;;;;;7.20;3.77;;;;;12.50;98143.00;;;;10300974;28;20224;-83
2024/03/27 09:56:41;;;;;;;6.43;4.40;;;;;12.40;98158.00;;;;10368773;28;20744;-83
2024/03/27 10:01:42;;;;;;;4.00;3.60;;;;;12.40;98162.00;;;;10363853;28;20306;-83
2024/03/27 10:06:51;;;;;;;7.43;4.27;;;;;12.40;98155.00;;;;10367220;28;20559;-82
2024/03/27 10:11:52;;;;;;;4.17;3.70;;;;;12.40;98167.00;;;;10355220;28;20250;-82
2024/03/27 10:16:54;;;;;;;5.57;3.40;;;;;12.50;98167.00;;;;10366866;28;20942;-82
2024/03/27 10:21:55;;;;;;;4.10;3.43;;;;;12.90;98191.00;;;;10354783;28;20230;-84
2024/03/27 10:26:57;;;;;;;5.40;4.10;;;;;12.90;98189.00;;;;10326715;28;20815;-82
2024/03/27 10:32:01;;;;;;;4.43;3.47;;;;;13.20;98183.00;;;;10344901;28;20247;-83
2024/03/27 10:37:04;;;;;;;4.57;3.50;;;;;13.20;98189.00;;;;10329558;28;20725;-82
2024/03/27 10:42:09;;;;;;;7.87;3.87;;;;;13.10;98182.00;;;;10364170;28;20231;-82
2024/03/27 10:47:13;;;;;;;7.13;3.90;;;;;12.80;98183.00;;;;10313561;28;20223;-82
2024/03/27 10:52:14;;;;;;;3.53;3.23;;;;;13.10;98181.00;;;;10327634;28;20310;-81
2024/03/27 10:57:18;;;;;;;4.67;3.70;;;;;13.90;98168.00;;;;10324013;28;20320;-82
2024/03/27 11:02:21;;;;;;;6.67;3.23;;;;;14.30;98155.00;;;;10333268;28;20241;-79
2024/03/27 11:07:23;;;;;;;4.00;3.30;;;;;14.90;98144.00;;;;10306627;28;20220;-81
2024/03/27 11:12:24;;;;;;;4.25;2.47;;;;;15.40;98134.00;;;;10309099;28;20232;-81
2024/03/27 11:17:27;;;;;;;4.88;2.90;;;;;16.00;98131.00;;;;10366675;28;20245;-80
2024/03/27 11:22:29;;;;;;;3.60;2.30;;;;;16.30;98131.00;;;;10372548;28;20230;-80
2024/03/27 11:27:31;;;;;;;5.15;2.75;;;;;15.40;98129.00;;;;10342649;28;20214;-80
2024/03/27 11:32:39;;;;;;;6.40;2.83;;;;;15.40;98126.00;;;;10331504;28;20231;-80
2024/03/27 11:37:40;;;;;;;2.75;2.38;;;;;16.00;98122.00;;;;10370505;28;20736;-80
2024/03/27 11:42:42;;;;;;;4.72;2.15;;;;;15.90;98127.00;;;;10361938;28;20253;-80
2024/03/27 11:47:45;;;;;;;3.00;2.25;;;;;16.20;98116.00;;;;10369046;28;20851;-79
2024/03/27 11:52:46;;;;;;;5.53;2.28;;;;;17.10;98118.00;;;;10353588;28;20219;-79
2024/03/27 11:57:47;;;;;;;3.80;2.00;;;;;17.20;98109.00;;;;10347991;28;20280;-80
2024/03/27 12:02:49;;;;;;;2.65;1.90;;;;;17.50;98128.00;;;;10349868;28;20222;-80
2024/03/27 12:07:50;;;;;;;3.70;2.30;;;;;17.30;98122.00;;;;10365262;28;20229;-81
2024/03/27 12:12:51;;;;;;;2.60;1.65;;;;;18.00;98124.00;;;;10383838;28;20238;-82
2024/03/27 12:17:56;;;;;;;5.15;1.85;;;;;17.70;98140.00;;;;10398564;28;20214;-82
2024/03/27 12:22:58;;;;;;;3.20;1.98;;;;;16.00;98130.00;;;;10367962;28;20230;-83
2024/03/27 12:28:01;;;;;;;1.85;1.65;;;;;15.60;98136.00;;;;10360647;28;20241;-81
2024/03/27 12:33:04;;;;;;;1.60;1.48;;;;;15.40;98137.00;;;;10374338;28;20231;-82
2024/03/27 12:38:08;;;;;;;2.85;1.80;;;;;14.80;98138.00;;;;10381451;28;20209;-83
2024/03/27 12:43:09;;;;;;;2.00;1.80;;;;;15.00;98136.00;;;;10359382;28;20214;-83
2024/03/27 12:48:19;;;;;;;3.17;2.15;;;;;15.00;98141.00;;;;10371293;28;20214;-82
2024/03/27 12:53:21;;;;;;;2.28;1.88;;;;;15.30;98133.00;;;;10373352;28;20762;-82
2024/03/27 12:58:22;;;;;;;4.85;1.95;;;;;15.90;98133.00;;;;10359620;28;20217;-82
2024/03/27 13:03:23;;;;;;;2.22;1.90;;;;;15.30;98124.00;;;;10369775;28;20249;-81
2024/03/27 13:08:24;;;;;;;3.80;1.55;;;;;14.10;98140.00;;;;10360282;28;20834;-82
2024/03/27 13:13:25;;;;;;;8.38;2.15;;;;;13.60;98139.00;;;;10367394;28;20227;-82
2024/03/27 13:18:27;;;;;;;6.15;2.10;;;;;14.70;98131.00;;;;10353534;28;20275;-82
2024/03/27 13:23:28;;;;;;;2.53;1.67;;;;;15.00;98133.00;;;;10349224;28;20229;-81
2024/03/27 13:28:29;;;;;;;1.30;1.20;;;;;14.40;98124.00;;;;10356649;28;20250;-82
2024/03/27 13:33:31;;;;;;;2.58;1.60;;;;;13.80;98137.00;;;;10386668;28;20222;-82
2024/03/27 13:38:32;;;;;;;1.42;1.20;;;;;13.70;98135.00;;;;10367555;28;20777;-83
2024/03/27 13:43:33;;;;;;;1.77;1.20;;;;;14.00;98133.00;;;;10365868;28;20310;-81
2024/03/27 13:48:34;;;;;;;1.25;1.13;;;;;14.40;98127.00;;;;10344731;28;20235;-80
2024/03/27 13:53:36;;;;;;;1.13;0.95;;;;;15.10;98123.00;;;;10372878;28;20226;-81
2024/03/27 13:58:37;;;;;;;2.13;1.40;;;;;15.40;98130.00;;;;10368036;28;20310;-81
2024/03/27 14:03:38;;;;;;;1.58;1.00;;;;;15.50;98128.00;;;;10381909;28;20317;-82
2024/03/27 14:08:40;;;;;;;1.05;0.93;;;;;15.60;98127.00;;;;10369307;28;20277;-82
2024/03/27 14:13:41;;;;;;;1.98;1.00;;;;;15.60;98131.00;;;;10383008;28;20221;-81
2024/03/27 14:18:42;;;;;;;1.95;1.08;;;;;15.30;98135.00;;;;10357729;28;20328;-83
2024/03/27 14:23:50;;;;;;;3.17;1.20;;;;;14.90;98131.00;;;;10374404;28;20941;-81
2024/03/27 14:28:56;;;;;;;1.67;1.10;;;;;14.80;98128.00;;;;10366600;28;20296;-82
2024/03/27 14:33:57;;;;;;;0.82;0.82;;;;;15.90;98124.00;;;;10349363;28;20223;-84
2024/03/27 14:38:58;;;;;;;1.20;0.85;;;;;15.00;98130.00;;;;10352074;28;20229;-81
2024/03/27 14:43:59;;;;;;;1.13;0.90;;;;;14.20;98124.00;;;;10346947;28;20298;-81
2024/03/27 14:49:02;;;;;;;0.70;0.70;;;;;15.00;98115.00;;;;10372283;28;20230;-83
2024/03/27 14:54:03;;;;;;;2.07;1.17;;;;;14.50;98122.00;;;;10360379;28;20238;-81
2024/03/27 14:59:04;;;;;;;0.85;0.85;;;;;14.30;98133.00;;;;10333177;28;20223;-80
2024/03/27 15:04:05;;;;;;;2.42;1.25;;;;;16.10;98123.00;;;;10364513;28;20222;-81
2024/03/27 15:09:07;;;;;;;1.45;1.00;;;;;14.60;98133.00;;;;10334182;28;20234;-82
2024/03/27 15:14:08;;;;;;;1.93;1.10;;;;;13.80;98124.00;;;;10339209;28;20226;-81
2024/03/27 15:19:09;;;;;;;1.83;0.90;;;;;13.60;98123.00;;;;10351859;28;20294;-82
2024/03/27 15:24:11;;;;;;;4.13;1.00;;;;;13.20;98129.00;;;;10340894;28;20306;-81
2024/03/27 15:29:12;;;;;;;1.60;1.00;;;;;13.00;98127.00;;;;10357842;28;20307;-80
2024/03/27 15:34:13;;;;;;;1.27;1.00;;;;;12.80;98126.00;;;;10348717;28;20793;-80
2024/03/27 15:39:14;;;;;;;2.40;0.90;;;;;13.10;98120.00;;;;10335340;28;20257;-81
2024/03/27 15:44:15;;;;;;;1.57;0.87;;;;;13.10;98113.00;;;;10347027;28;20677;-79
2024/03/27 15:49:16;;;;;;;2.53;1.30;;;;;13.40;98134.00;;;;10351774;28;20218;-78
2024/03/27 15:54:17;;;;;;;2.20;1.03;;;;;12.40;98133.00;;;;10353910;28;20314;-80
2024/03/27 15:59:19;;;;;;;3.00;1.00;;;;;12.10;98137.00;;;;10339660;28;21127;-78
2024/03/27 16:04:20;;;;;;;3.77;0.87;;;;;11.80;98137.00;;;;10350546;28;20217;-79
2024/03/27 16:09:26;;;;;;;1.77;1.00;;;;;11.60;98138.00;;;;10339655;28;20269;-78
2024/03/27 16:14:27;;;;;;;0.60;0.60;;;;;11.50;98132.00;;;;10340415;28;20272;-80
2024/03/27 16:19:30;;;;;;;0.87;0.60;;;;;11.40;98137.00;;;;10336758;28;20227;-79
2024/03/27 16:24:32;;;;;;;0.77;0.70;;;;;11.30;98134.00;;;;10359932;28;20265;-77
2024/03/27 16:29:34;;;;;;;1.47;0.70;;;;;11.40;98150.00;;;;10342826;28;20223;-78
2024/03/27 16:34:36;;;;;;;0.70;0.70;;;;;11.70;98142.00;;;;10371783;28;20280;-77
2024/03/27 16:39:43;;;;;;;0.77;0.70;;;;;11.70;98129.00;;;;10348917;28;20317;-79
2024/03/27 16:44:44;;;;;;;0.90;0.70;;;;;11.80;98134.00;;;;10366266;28;20302;-80
2024/03/27 16:49:48;;;;;;;1.70;0.77;;;;;11.90;98137.00;;;;10347346;28;20917;-81
2024/03/27 16:54:49;;;;;;;4.53;0.90;;;;;11.90;98142.00;;;;10345265;28;20306;-79
2024/03/27 16:59:50;;;;;;;1.00;0.80;;;;;11.80;98150.00;;;;10363880;28;20244;-81
2024/03/27 17:04:51;;;;;;;1.93;0.80;;;;;11.70;98150.00;;;;10358007;28;20227;-79
2024/03/27 17:09:52;;;;;;;2.30;0.97;;;;;11.60;98151.00;;;;10400901;28;20226;-80
2024/03/27 17:14:54;;;;;;;0.80;0.80;;;;;11.50;98143.00;;;;10373335;28;20244;-80
2024/03/27 17:19:55;;;;;;;1.10;0.90;;;;;11.30;98150.00;;;;10360658;28;20299;-80
2024/03/27 17:24:56;;;;;;;2.90;0.93;;;;;11.20;98152.00;;;;10383812;28;20298;-80
2024/03/27 17:29:57;;;;;;;0.97;0.90;;;;;11.10;98148.00;;;;10375458;28;20297;-82
2024/03/27 17:35:01;;;;;;;1.53;0.90;;;;;10.90;98155.00;;;;10364936;28;20229;-80
2024/03/27 17:40:02;;;;;;;1.17;1.10;;;;;10.80;98153.00;;;;10369122;28;20222;-80
2024/03/27 17:45:04;;;;;;;2.47;1.30;;;;;10.80;98168.00;;;;10373515;28;20234;-80
2024/03/27 17:50:06;;;;;;;1.33;1.07;;;;;10.70;98167.00;;;;10366938;28;20237;-81
2024/03/27 17:55:07;;;;;;;1.33;1.20;;;;;10.50;98171.00;;;;10372507;28;20301;-81
2024/03/27 18:00:09;;;;;;;2.73;1.23;;;;;10.30;98167.00;;;;10357097;28;20253;-85
2024/03/27 18:05:10;;;;;;;1.53;1.17;;;;;10.20;98153.00;;;;10345365;28;20661;-85
2024/03/27 18:10:11;;;;;;;1.30;1.10;;;;;10.10;98164.00;;;;10353594;28;20234;-84
2024/03/27 18:15:13;;;;;;;2.73;1.60;;;;;9.90;98155.00;;;;10371466;28;20242;-84
2024/03/27 18:20:14;;;;;;;4.60;1.13;;;;;9.70;98162.00;;;;10381022;28;20225;-84
2024/03/27 18:25:15;;;;;;;2.07;1.17;;;;;9.70;98164.00;;;;10375162;28;20229;-84
2024/03/27 18:30:17;;;;;;;1.20;1.10;;;;;9.50;98157.00;;;;10371475;28;20218;-84
2024/03/27 18:35:21;;;;;;;2.00;1.60;;;;;9.40;98152.00;;;;10366112;28;20714;-82
2024/03/27 18:40:22;;;;;;;2.17;1.10;;;;;9.30;98148.00;;;;10364415;28;20641;-85
2024/03/27 18:45:24;;;;;;;2.83;1.40;;;;;9.30;98141.00;;;;10367900;28;20346;-84
2024/03/27 18:50:25;;;;;;;3.83;1.60;;;;;9.20;98136.00;;;;10372708;28;20234;-83
2024/03/27 18:55:26;;;;;;;2.63;1.37;;;;;9.10;98137.00;;;;10359723;28;20215;-83
2024/03/27 19:00:27;;;;;;;1.93;1.27;;;;;9.10;98147.00;;;;10350371;28;20253;-84
2024/03/27 19:05:28;;;;;;;6.77;2.07;;;;;9.00;98140.00;;;;10370439;28;20318;-82
2024/03/27 19:10:32;;;;;;;3.20;1.87;;;;;8.90;98131.00;;;;10362865;28;20297;-83
2024/03/27 19:15:38;;;;;;;3.67;1.93;;;;;8.80;98120.00;;;;10364523;28;20220;-82
2024/03/27 19:20:44;;;;;;;1.77;1.53;;;;;8.70;98123.00;;;;10383859;28;20257;-82
2024/03/27 19:25:54;;;;;;;1.60;1.50;;;;;8.70;98125.00;;;;10372480;28;20310;-82
2024/03/27 19:30:55;;;;;;;1.87;1.47;;;;;8.60;98122.00;;;;10368171;28;20262;-82
2024/03/27 19:36:03;;;;;;;2.07;1.60;;;;;8.60;98131.00;;;;10356243;28;20246;-82
2024/03/27 19:41:05;;;;;;;2.00;1.60;;;;;8.50;98134.00;;;;10362449;28;20232;-83
2024/03/27 19:46:06;;;;;;;3.67;2.10;;;;;8.40;98126.00;;;;10357314;28;20771;-81
2024/03/27 19:51:07;;;;;;;5.57;2.17;;;;;8.40;98135.00;;;;10376741;28;20268;-82
2024/03/27 19:56:09;;;;;;;5.30;3.60;;;;;8.30;98124.00;;;;10363169;28;20227;-82
2024/03/27 20:01:11;;;;;;;3.43;2.17;;;;;8.30;98129.00;;;;10358975;28;20252;-83
2024/03/27 20:06:12;;;;;;;2.70;1.80;;;;;8.20;98124.00;;;;10364098;28;20778;-82
2024/03/27 20:11:14;;;;;;;2.40;1.70;;;;;8.20;98126.00;;;;10361242;28;20867;-82
2024/03/27 20:16:15;;;;;;;3.43;1.50;;;;;8.10;98120.00;;;;10389954;28;20222;-82
2024/03/27 20:21:17;;;;;;;1.70;1.60;;;;;8.10;98110.00;;;;10354824;28;20238;-76
2024/03/27 20:26:18;;;;;;;1.80;1.60;;;;;8.10;98109.00;;;;10364295;28;20222;-79
2024/03/27 20:31:19;;;;;;;1.83;1.43;;;;;8.10;98095.00;;;;10389186;28;20258;-77
2024/03/27 20:36:21;;;;;;;1.57;1.47;;;;;8.10;98092.00;;;;10354946;28;20235;-77
2024/03/27 20:41:22;;;;;;;1.90;1.60;;;;;8.10;98100.00;;;;10357337;28;20226;-77
2024/03/27 20:46:23;;;;;;;1.47;1.17;;;;;8.10;98092.00;;;;10360395;28;20571;-78
2024/03/27 20:51:24;;;;;;;2.83;1.50;;;;;8.10;98083.00;;;;10354198;28;20234;-77
2024/03/27 20:56:25;;;;;;;2.00;1.70;;;;;8.00;98083.00;;;;10370887;28;20355;-76
2024/03/27 21:01:26;;;;;;;1.97;1.43;;;;;8.10;98071.00;;;;10348612;28;20234;-76
2024/03/27 21:06:28;;;;;;;1.87;1.60;;;;;8.00;98072.00;;;;10355286;28;20243;-76
2024/03/27 21:11:29;;;;;;;1.63;1.27;;;;;8.00;98068.00;;;;10387616;28;20253;-77
2024/03/27 21:16:31;;;;;;;3.03;1.73;;;;;7.90;98059.00;;;;10346408;28;20210;-77
2024/03/27 21:21:33;;;;;;;2.23;1.30;;;;;7.90;98058.00;;;;10362467;28;20224;-78
2024/03/27 21:26:35;;;;;;;2.23;1.40;;;;;7.90;98049.00;;;;10359297;28;20242;-78
2024/03/27 21:31:36;;;;;;;1.50;1.40;;;;;7.80;98049.00;;;;10361688;28;20235;-77
2024/03/27 21:36:38;;;;;;;1.33;1.20;;;;;7.80;98047.00;;;;10362840;28;20258;-77
2024/03/27 21:41:39;;;;;;;1.40;1.30;;;;;7.80;98051.00;;;;10368695;28;21851;-78
2024/03/27 21:46:40;;;;;;;1.53;1.20;;;;;7.80;98039.00;;;;10374066;28;20682;-78
2024/03/27 21:51:42;;;;;;;2.10;1.47;;;;;7.80;98041.00;;;;10387309;28;20252;-77
2024/03/27 21:56:43;;;;;;;3.70;1.50;;;;;7.70;98041.00;;;;10379384;28;20749;-78
2024/03/27 22:01:44;;;;;;;1.57;1.20;;;;;7.70;98038.00;;;;10362093;28;20583;-78
2024/03/27 22:06:45;;;;;;;1.30;1.20;;;;;7.70;98030.00;;;;10373600;28;20913;-78
2024/03/27 22:11:46;;;;;;;2.30;1.30;;;;;7.70;98032.00;;;;10351187;28;20618;-79
2024/03/27 22:16:48;;;;;;;1.87;1.10;;;;;7.70;98017.00;;;;10373219;28;20257;-79
2024/03/27 22:21:49;;;;;;;2.20;1.40;;;;;7.70;98018.00;;;;10373494;28;20227;-78
2024/03/27 22:26:50;;;;;;;2.17;1.30;;;;;7.60;98012.00;;;;10349650;28;20249;-78
2024/03/27 22:31:51;;;;;;;1.37;1.27;;;;;7.50;98010.00;;;;10382046;28;20218;-77
2024/03/27 22:36:52;;;;;;;1.30;1.20;;;;;7.40;98006.00;;;;10341587;28;20875;-78
2024/03/27 22:41:53;;;;;;;1.40;1.20;;;;;7.30;97998.00;;;;10376486;28;20241;-81
2024/03/27 22:46:54;;;;;;;1.00;1.00;;;;;7.40;97991.00;;;;10384293;28;20305;-81
2024/03/27 22:51:56;;;;;;;1.90;1.20;;;;;7.40;97976.00;;;;10374685;28;20325;-80
2024/03/27 22:56:57;;;;;;;4.63;1.20;;;;;7.50;97966.00;;;;10385837;28;20254;-83
2024/03/27 23:01:58;;;;;;;1.60;1.50;;;;;7.50;97952.00;;;;10389329;28;20250;-82
2024/03/27 23:06:59;;;;;;;1.63;1.27;;;;;7.50;97949.00;;;;10371818;28;20265;-82
2024/03/27 23:12:01;;;;;;;1.50;1.10;;;;;7.60;97941.00;;;;10367619;28;20744;-82
2024/03/27 23:17:02;;;;;;;1.00;0.90;;;;;7.60;97936.00;;;;10374421;28;20306;-81
2024/03/27 23:22:03;;;;;;;1.20;1.10;;;;;7.70;97923.00;;;;10359190;28;20255;-82
2024/03/27 23:27:05;;;;;;;1.20;1.10;;;;;7.70;97907.00;;;;10363541;28;20963;-83
2024/03/27 23:32:06;;;;;;;2.57;1.20;;;;;7.70;97908.00;;;;10367503;28;20231;-82
2024/03/27 23:37:08;;;;;;;2.47;1.20;;;;;7.70;97898.00;;;;10371257;28;20219;-82
2024/03/27 23:42:09;;;;;;;1.20;1.07;;;;;7.70;97900.00;;;;10386272;28;20233;-82
2024/03/27 23:47:10;;;;;;;1.43;1.20;;;;;7.70;97901.00;;;;10348341;28;20242;-82
2024/03/27 23:52:11;;;;;;;1.70;1.40;;;;;7.70;97904.00;;;;10362256;28;20214;-80
2024/03/27 23:57:13;;;;;;;1.27;1.10;;;;;7.80;97900.00;;;;10367066;28;20231;-79
